createdAt,value
2017-08-04T00:01:18.656Z,84.71
2017-08-04T00:03:46.623Z,84.49
2017-08-04T00:06:14.254Z,84.41
2017-08-04T00:08:41.880Z,84.06
2017-08-04T00:11:09.573Z,84.32
2017-08-04T00:13:37.203Z,84.90
2017-08-04T00:16:04.981Z,85.35
2017-08-04T00:18:32.667Z,85.51
2017-08-04T00:21:00.291Z,85.28
2017-08-04T00:23:28.233Z,85.43
2017-08-04T00:25:55.978Z,85.26
2017-08-04T00:28:23.997Z,85.97
2017-08-04T00:30:51.831Z,86.28
2017-08-04T00:33:19.577Z,86.06
2017-08-04T00:35:47.543Z,85.65
2017-08-04T00:38:15.462Z,85.26
2017-08-04T00:40:43.536Z,85.48
2017-08-04T00:43:11.593Z,85.87
2017-08-04T00:45:39.336Z,86.18
2017-08-04T00:48:07.340Z,86.27
2017-08-04T00:50:35.195Z,86.18
2017-08-04T00:53:03.189Z,86.17
2017-08-04T00:55:30.864Z,86.32
2017-08-04T00:57:58.535Z,86.67
2017-08-04T01:00:26.439Z,87.06
2017-08-04T01:02:54.135Z,86.98
2017-08-04T01:05:21.970Z,86.88
2017-08-04T01:07:49.716Z,87.76
2017-08-04T01:10:17.682Z,88.21
2017-08-04T01:12:45.602Z,88.13
2017-08-04T01:15:13.225Z,88.19
2017-08-04T01:17:40.932Z,87.55
2017-08-04T01:20:08.541Z,87.64
2017-08-04T01:22:36.157Z,87.70
2017-08-04T01:25:03.833Z,87.37
2017-08-04T01:27:31.479Z,87.10
2017-08-04T01:29:59.108Z,87.34
2017-08-04T01:32:26.772Z,87.54
2017-08-04T01:34:54.401Z,88.05
2017-08-04T01:37:22.020Z,88.01
2017-08-04T01:39:49.892Z,88.41
2017-08-04T01:42:17.633Z,88.19
2017-08-04T01:44:45.277Z,88.04
2017-08-04T01:47:12.987Z,88.16
2017-08-04T01:49:40.596Z,88.64
2017-08-04T01:52:08.213Z,88.79
2017-08-04T01:54:35.892Z,89.27
2017-08-04T01:57:03.524Z,88.77
2017-08-04T01:59:32.060Z,88.67
2017-08-04T02:01:59.748Z,88.51
2017-08-04T02:04:27.377Z,89.25
2017-08-04T02:06:55.098Z,88.95
2017-08-04T02:09:22.772Z,88.71
2017-08-04T02:11:50.391Z,88.34
2017-08-04T02:14:17.990Z,88.79
2017-08-04T02:16:45.657Z,88.54
2017-08-04T02:19:13.272Z,88.90
2017-08-04T02:21:40.923Z,88.68
2017-08-04T02:24:08.628Z,88.59
2017-08-04T02:26:36.256Z,88.79
2017-08-04T02:29:03.880Z,88.94
2017-08-04T02:31:31.606Z,89.21
2017-08-04T02:33:59.225Z,89.30
2017-08-04T02:36:26.851Z,89.26
2017-08-04T02:38:54.543Z,89.21
2017-08-04T02:41:22.172Z,88.91
2017-08-04T02:43:49.786Z,88.91
2017-08-04T02:46:17.529Z,88.73
2017-08-04T02:48:45.160Z,88.53
2017-08-04T02:51:12.769Z,88.36
2017-08-04T02:53:40.443Z,88.48
2017-08-04T02:56:08.104Z,88.33
2017-08-04T02:58:35.731Z,88.13
2017-08-04T03:01:03.416Z,88.30
2017-08-04T03:03:31.032Z,88.54
2017-08-04T03:05:58.672Z,88.14
2017-08-04T03:08:26.354Z,88.64
2017-08-04T03:10:53.976Z,89.28
2017-08-04T03:13:21.604Z,89.28
2017-08-04T03:15:49.278Z,90.11
2017-08-04T03:18:16.890Z,90.04
2017-08-04T03:20:44.501Z,89.56
2017-08-04T03:23:12.185Z,89.30
2017-08-04T03:25:39.816Z,88.86
2017-08-04T03:28:07.445Z,89.07
2017-08-04T03:30:35.189Z,88.27
2017-08-04T03:33:02.802Z,88.62
2017-08-04T03:35:30.432Z,88.12
2017-08-04T03:37:58.097Z,87.85
2017-08-04T03:40:25.734Z,87.65
2017-08-04T03:42:53.355Z,87.50
2017-08-04T03:45:21.042Z,87.51
2017-08-04T03:47:48.728Z,87.10
2017-08-04T03:50:16.352Z,86.77
2017-08-04T03:52:44.025Z,86.01
2017-08-04T03:55:11.639Z,83.38
2017-08-04T03:57:39.469Z,74.41
2017-08-04T04:00:07.423Z,66.16
2017-08-04T04:02:35.025Z,60.77
2017-08-04T04:05:02.648Z,57.29
2017-08-04T04:07:30.305Z,55.60
2017-08-04T04:09:57.910Z,53.67
2017-08-04T04:12:25.536Z,52.35
2017-08-04T04:14:53.207Z,52.19
2017-08-04T04:17:20.824Z,50.95
2017-08-04T04:19:48.430Z,48.49
2017-08-04T04:22:16.136Z,47.69
2017-08-04T04:24:43.753Z,47.77
2017-08-04T04:27:11.392Z,47.63
2017-08-04T04:29:39.107Z,45.62
2017-08-04T04:32:06.752Z,44.13
2017-08-04T04:34:34.507Z,44.81
2017-08-04T04:37:02.171Z,42.33
2017-08-04T04:39:29.797Z,43.44
2017-08-04T04:41:57.416Z,43.00
2017-08-04T04:44:25.089Z,41.91
2017-08-04T04:46:52.704Z,41.08
2017-08-04T04:49:20.321Z,40.71
2017-08-04T04:51:47.996Z,40.19
2017-08-04T04:54:15.623Z,40.45
2017-08-04T04:56:43.241Z,38.53
2017-08-04T04:59:10.921Z,39.33
2017-08-04T05:01:38.545Z,38.90
2017-08-04T05:04:06.161Z,36.71
2017-08-04T05:06:33.840Z,37.52
2017-08-04T05:09:01.467Z,35.43
2017-08-04T05:11:29.086Z,35.42
2017-08-04T05:13:56.749Z,33.20
2017-08-04T05:16:24.354Z,33.07
2017-08-04T05:18:51.957Z,32.18
2017-08-04T05:21:19.632Z,30.76
2017-08-04T05:23:47.251Z,30.22
2017-08-04T05:26:14.852Z,31.63
2017-08-04T05:28:42.541Z,30.92
2017-08-04T05:31:10.172Z,31.43
2017-08-04T05:33:37.811Z,29.79
2017-08-04T05:36:05.589Z,29.54
2017-08-04T05:38:33.274Z,30.28
2017-08-04T05:41:00.931Z,29.01
2017-08-04T05:43:28.597Z,28.93
2017-08-04T05:45:56.216Z,27.36
2017-08-04T05:48:23.821Z,28.22
2017-08-04T05:50:51.638Z,29.25
2017-08-04T05:53:19.267Z,29.35
2017-08-04T05:55:46.894Z,29.62
2017-08-04T05:58:14.577Z,30.12
2017-08-04T06:00:42.212Z,30.32
2017-08-04T06:03:09.885Z,29.22
2017-08-04T06:05:37.568Z,30.85
2017-08-04T06:08:05.185Z,28.41
2017-08-04T06:10:32.795Z,28.27
2017-08-04T06:13:00.477Z,27.01
2017-08-04T06:15:28.104Z,27.51
2017-08-04T06:17:55.720Z,26.68
2017-08-04T06:20:23.366Z,26.24
2017-08-04T06:22:50.994Z,27.40
2017-08-04T06:25:18.605Z,28.10
2017-08-04T06:27:46.279Z,29.23
2017-08-04T06:30:13.886Z,28.93
2017-08-04T06:32:41.514Z,28.13
2017-08-04T06:35:09.186Z,28.25
2017-08-04T06:37:36.787Z,27.97
2017-08-04T06:40:04.421Z,27.70
2017-08-04T06:42:32.087Z,27.84
2017-08-04T06:44:59.716Z,26.92
2017-08-04T06:47:27.342Z,25.81
2017-08-04T06:50:06.730Z,25.90
2017-08-04T06:52:46.233Z,26.67
2017-08-04T06:55:35.743Z,28.74
2017-08-04T06:58:03.377Z,27.28
2017-08-04T07:00:30.996Z,28.19
2017-08-04T07:02:58.669Z,27.17
2017-08-04T07:05:26.277Z,27.18
2017-08-04T07:07:53.896Z,26.61
2017-08-04T07:10:21.567Z,27.31
2017-08-04T07:12:49.174Z,28.19
2017-08-04T07:15:16.773Z,27.57
2017-08-04T07:17:44.439Z,28.22
2017-08-04T07:20:12.056Z,26.89
2017-08-04T07:22:39.662Z,27.76
2017-08-04T07:25:07.329Z,26.08
2017-08-04T07:27:34.960Z,25.18
2017-08-04T07:30:02.594Z,24.12
2017-08-04T07:32:30.260Z,24.07
2017-08-04T07:34:57.873Z,24.12
2017-08-04T07:37:25.483Z,24.48
2017-08-04T07:39:53.167Z,24.19
2017-08-04T07:42:20.776Z,23.10
2017-08-04T07:44:48.401Z,22.97
2017-08-04T07:47:16.102Z,24.71
2017-08-04T07:49:43.755Z,24.67
2017-08-04T07:52:11.372Z,24.63
2017-08-04T07:54:39.140Z,23.57
2017-08-04T07:57:06.769Z,25.14
2017-08-04T07:59:34.390Z,26.63
2017-08-04T08:02:02.045Z,24.89
2017-08-04T08:04:29.715Z,24.78
2017-08-04T08:06:57.334Z,25.40
2017-08-04T08:09:25.008Z,25.41
2017-08-04T08:11:52.619Z,25.14
2017-08-04T08:14:20.239Z,24.62
2017-08-04T08:16:47.882Z,25.89
2017-08-04T08:19:15.489Z,25.28
2017-08-04T08:21:43.093Z,24.58
2017-08-04T08:24:10.763Z,24.87
2017-08-04T08:26:38.363Z,25.55
2017-08-04T08:29:05.968Z,23.83
2017-08-04T08:31:33.646Z,23.54
2017-08-04T08:34:01.268Z,23.38
2017-08-04T08:36:28.885Z,23.92
2017-08-04T08:38:56.575Z,23.60
2017-08-04T08:41:24.253Z,23.92
2017-08-04T08:43:51.881Z,23.02
2017-08-04T08:46:19.557Z,24.39
2017-08-04T08:48:47.153Z,23.00
2017-08-04T08:51:14.765Z,22.46
2017-08-04T08:53:42.422Z,22.30
2017-08-04T08:56:10.088Z,23.20
2017-08-04T08:58:37.690Z,22.91
2017-08-04T09:01:05.349Z,20.92
2017-08-04T09:03:32.937Z,21.24
2017-08-04T09:06:00.524Z,20.42
2017-08-04T09:08:28.339Z,21.30
2017-08-04T09:10:55.976Z,23.44
2017-08-04T09:13:23.595Z,22.18
2017-08-04T09:15:51.268Z,22.86
2017-08-04T09:18:18.892Z,22.20
2017-08-04T09:20:46.516Z,22.18
2017-08-04T09:23:14.186Z,21.35
2017-08-04T09:25:41.805Z,22.61
2017-08-04T09:28:09.428Z,21.65
2017-08-04T09:30:37.084Z,20.73
2017-08-04T09:33:04.778Z,21.94
2017-08-04T09:35:32.399Z,20.16
2017-08-04T09:38:00.088Z,20.19
2017-08-04T09:40:27.702Z,20.09
2017-08-04T09:42:55.323Z,22.05
2017-08-04T09:45:23.681Z,19.95
2017-08-04T09:47:51.361Z,19.34
2017-08-04T09:50:18.969Z,20.64
2017-08-04T09:52:46.643Z,19.68
2017-08-04T09:55:14.259Z,20.63
2017-08-04T09:57:42.144Z,19.92
2017-08-04T10:00:09.828Z,19.59
2017-08-04T10:02:37.434Z,20.88
2017-08-04T10:05:05.034Z,20.16
2017-08-04T10:07:32.720Z,19.30
2017-08-04T10:10:00.334Z,18.99
2017-08-04T10:12:27.948Z,21.14
2017-08-04T10:14:55.637Z,19.18
2017-08-04T10:17:23.262Z,20.51
2017-08-04T10:19:50.877Z,18.84
2017-08-04T10:22:18.585Z,19.59
2017-08-04T10:24:46.190Z,18.50
2017-08-04T10:27:15.921Z,18.33
2017-08-04T10:29:43.799Z,18.66
2017-08-04T10:32:11.450Z,19.70
2017-08-04T10:34:39.059Z,18.81
2017-08-04T10:37:06.721Z,20.17
2017-08-04T10:39:34.329Z,18.33
2017-08-04T10:42:01.941Z,19.04
2017-08-04T10:44:29.610Z,21.57
2017-08-04T10:46:57.209Z,21.15
2017-08-04T10:49:24.806Z,19.88
2017-08-04T10:51:52.476Z,21.17
2017-08-04T10:54:20.091Z,20.39
2017-08-04T10:56:47.697Z,17.93
2017-08-04T10:59:15.602Z,18.12
2017-08-04T11:01:43.232Z,18.06
2017-08-04T11:04:10.835Z,18.58
2017-08-04T11:06:38.509Z,21.88
2017-08-04T11:09:06.168Z,19.38
2017-08-04T11:11:33.779Z,19.09
2017-08-04T11:14:01.452Z,19.17
2017-08-04T11:16:29.070Z,18.50
2017-08-04T11:18:56.674Z,17.54
2017-08-04T11:21:24.615Z,17.90
2017-08-04T11:23:52.229Z,17.45
2017-08-04T11:26:19.846Z,18.66
2017-08-04T11:28:47.554Z,18.21
2017-08-04T11:31:15.166Z,18.04
2017-08-04T11:33:42.775Z,16.85
2017-08-04T11:36:10.451Z,17.95
2017-08-04T11:38:38.060Z,16.71
2017-08-04T11:41:05.679Z,17.93
2017-08-04T11:43:33.356Z,17.87
2017-08-04T11:46:00.980Z,17.79
2017-08-04T11:48:28.598Z,19.00
2017-08-04T11:50:56.268Z,18.34
2017-08-04T11:53:23.884Z,18.41
2017-08-04T11:55:51.515Z,20.56
2017-08-04T11:58:19.201Z,18.75
2017-08-04T12:00:46.863Z,18.91
2017-08-04T12:03:14.479Z,19.39
2017-08-04T12:05:42.161Z,18.94
2017-08-04T12:08:09.896Z,17.82
2017-08-04T12:10:37.868Z,17.77
2017-08-04T12:13:05.551Z,18.33
2017-08-04T12:15:33.165Z,18.94
2017-08-04T12:18:00.762Z,19.26
2017-08-04T12:20:28.432Z,19.62
2017-08-04T12:22:56.151Z,19.11
2017-08-04T12:25:23.768Z,19.40
2017-08-04T12:27:51.426Z,20.77
2017-08-04T12:30:19.060Z,19.88
2017-08-04T12:32:46.692Z,19.37
2017-08-04T12:35:14.359Z,19.88
2017-08-04T12:37:41.981Z,19.61
2017-08-04T12:40:09.601Z,18.89
2017-08-04T12:42:37.272Z,18.30
2017-08-04T12:45:04.879Z,18.63
2017-08-04T12:47:32.486Z,19.33
2017-08-04T12:50:00.169Z,20.28
2017-08-04T12:52:27.784Z,20.18
2017-08-04T12:54:55.383Z,20.77
2017-08-04T12:57:23.056Z,19.80
2017-08-04T12:59:50.849Z,22.26
2017-08-04T13:02:18.537Z,22.32
2017-08-04T13:04:46.203Z,23.03
2017-08-04T13:07:13.801Z,22.60
2017-08-04T13:09:41.397Z,23.18
2017-08-04T13:12:09.045Z,24.66
2017-08-04T13:14:36.663Z,24.78
2017-08-04T13:17:04.292Z,24.75
2017-08-04T13:19:31.953Z,24.68
2017-08-04T13:21:59.559Z,24.90
2017-08-04T13:24:27.172Z,25.60
2017-08-04T13:26:54.832Z,26.29
2017-08-04T13:29:22.426Z,26.36
2017-08-04T13:31:50.006Z,26.27
2017-08-04T13:34:17.652Z,26.14
2017-08-04T13:36:45.264Z,26.14
2017-08-04T13:39:12.871Z,25.69
2017-08-04T13:41:40.534Z,26.32
2017-08-04T13:44:08.248Z,26.52
2017-08-04T13:46:35.867Z,26.98
2017-08-04T13:49:03.517Z,27.50
2017-08-04T13:51:31.255Z,26.65
2017-08-04T13:53:59.220Z,26.89
2017-08-04T13:56:26.919Z,27.54
2017-08-04T13:58:54.525Z,26.96
2017-08-04T14:01:22.115Z,27.42
2017-08-04T14:03:49.905Z,27.65
2017-08-04T14:06:17.506Z,26.91
2017-08-04T14:08:45.445Z,28.44
2017-08-04T14:11:13.105Z,28.01
2017-08-04T14:13:40.769Z,26.90
2017-08-04T14:16:08.362Z,26.72
2017-08-04T14:18:36.021Z,27.60
2017-08-04T14:21:03.861Z,27.20
2017-08-04T14:23:31.723Z,26.87
2017-08-04T14:25:59.486Z,27.93
2017-08-04T14:28:27.358Z,28.69
2017-08-04T14:30:55.200Z,28.60
2017-08-04T14:33:24.791Z,26.69
2017-08-04T14:35:52.395Z,27.43
2017-08-04T14:38:19.996Z,26.94
2017-08-04T14:40:47.710Z,27.04
2017-08-04T14:43:15.327Z,28.36
2017-08-04T14:45:42.943Z,28.34
2017-08-04T14:48:10.632Z,27.35
2017-08-04T14:50:38.236Z,27.86
2017-08-04T14:53:05.845Z,26.86
2017-08-04T14:55:33.511Z,27.14
2017-08-04T14:58:01.115Z,27.73
2017-08-04T15:00:29.010Z,28.67
2017-08-04T15:02:56.867Z,26.42
2017-08-04T15:05:24.796Z,26.66
2017-08-04T15:07:52.660Z,26.91
2017-08-04T15:10:20.630Z,26.52
2017-08-04T15:12:48.449Z,27.97
2017-08-04T15:15:16.312Z,26.85
2017-08-04T15:17:44.288Z,27.32
2017-08-04T15:20:12.123Z,27.10
2017-08-04T15:22:40.019Z,27.84
2017-08-04T15:25:07.881Z,26.68
2017-08-04T15:27:35.602Z,27.55
2017-08-04T15:30:03.439Z,28.38
2017-08-04T15:32:31.463Z,28.60
2017-08-04T15:34:59.211Z,28.26
2017-08-04T15:37:27.001Z,28.37
2017-08-04T15:39:54.675Z,28.22
2017-08-04T15:42:22.504Z,28.13
2017-08-04T15:44:50.209Z,28.14
2017-08-04T15:47:18.298Z,30.14
2017-08-04T15:49:45.906Z,31.01
2017-08-04T15:52:13.513Z,30.35
2017-08-04T15:54:41.159Z,28.68
2017-08-04T15:57:08.747Z,29.00
2017-08-04T15:59:36.366Z,31.36
2017-08-04T16:02:04.024Z,32.29
2017-08-04T16:04:31.619Z,34.14
2017-08-04T16:06:59.781Z,32.79
2017-08-04T16:09:27.854Z,34.06
2017-08-04T16:11:55.461Z,35.32
2017-08-04T16:14:23.080Z,36.69
2017-08-04T16:16:50.738Z,39.88
2017-08-04T16:19:18.346Z,38.39
2017-08-04T16:21:45.962Z,38.79
2017-08-04T16:24:13.621Z,40.32
2017-08-04T16:26:41.217Z,41.30
2017-08-04T16:29:08.877Z,42.63
2017-08-04T16:31:36.525Z,43.55
2017-08-04T16:34:04.130Z,44.73
2017-08-04T16:36:31.748Z,44.12
2017-08-04T16:38:59.412Z,44.12
2017-08-04T16:41:27.011Z,48.06
2017-08-04T16:43:54.612Z,47.33
2017-08-04T16:46:22.281Z,50.54
2017-08-04T16:48:51.634Z,51.49
2017-08-04T16:51:19.437Z,51.87
2017-08-04T16:53:47.100Z,53.13
2017-08-04T16:56:14.720Z,54.73
2017-08-04T16:58:42.332Z,54.62
2017-08-04T17:01:10.003Z,54.92
2017-08-04T17:03:37.596Z,56.43
2017-08-04T17:06:05.203Z,57.35
2017-08-04T17:08:32.869Z,55.94
2017-08-04T17:11:00.472Z,56.76
2017-08-04T17:13:28.137Z,59.01
2017-08-04T17:15:55.829Z,59.87
2017-08-04T17:18:23.465Z,62.13
2017-08-04T17:20:51.084Z,62.44
2017-08-04T17:23:18.741Z,64.83
2017-08-04T17:25:46.335Z,63.45
2017-08-04T17:28:13.944Z,63.23
2017-08-04T17:30:41.595Z,61.47
2017-08-04T17:33:09.187Z,64.85
2017-08-04T17:35:36.806Z,62.92
2017-08-04T17:38:04.470Z,63.55
2017-08-04T17:40:32.069Z,66.76
2017-08-04T17:42:59.683Z,67.60
2017-08-04T17:45:27.575Z,66.04
2017-08-04T17:47:55.182Z,67.30
2017-08-04T17:50:22.784Z,70.20
2017-08-04T17:52:50.437Z,68.70
2017-08-04T17:55:18.037Z,69.03
2017-08-04T17:57:45.633Z,69.20
2017-08-04T18:00:13.297Z,70.69
2017-08-04T18:02:52.666Z,68.94
2017-08-04T18:05:20.333Z,70.12
2017-08-04T18:07:47.935Z,69.39
2017-08-04T18:10:16.462Z,71.38
2017-08-04T18:12:44.196Z,72.18
2017-08-04T18:15:11.816Z,71.96
2017-08-04T18:17:39.447Z,72.46
2017-08-04T18:20:07.102Z,70.12
2017-08-04T18:22:34.728Z,72.78
2017-08-04T18:25:02.345Z,71.14
2017-08-04T18:27:30.021Z,71.05
2017-08-04T18:29:57.629Z,71.12
2017-08-04T18:32:25.222Z,72.24
2017-08-04T18:34:52.893Z,72.13
2017-08-04T18:37:20.485Z,73.24
2017-08-04T18:39:48.076Z,72.67
2017-08-04T18:42:15.802Z,73.41
2017-08-04T18:44:43.547Z,71.83
2017-08-04T18:47:11.155Z,72.48
2017-08-04T18:49:38.806Z,73.26
2017-08-04T18:52:06.415Z,72.21
2017-08-04T18:54:34.031Z,73.57
2017-08-04T18:57:01.719Z,73.69
2017-08-04T18:59:29.345Z,74.30
2017-08-04T19:01:56.940Z,74.17
2017-08-04T19:04:24.654Z,74.19
2017-08-04T19:06:52.262Z,75.11
2017-08-04T19:09:19.889Z,76.20
2017-08-04T19:11:47.607Z,76.83
2017-08-04T19:14:15.221Z,77.04
2017-08-04T19:16:42.829Z,77.64
2017-08-04T19:19:10.487Z,78.77
2017-08-04T19:21:38.104Z,79.20
2017-08-04T19:24:05.864Z,79.73
2017-08-04T19:26:33.622Z,80.19
2017-08-04T19:29:01.238Z,80.28
2017-08-04T19:31:29.188Z,80.66
2017-08-04T19:33:58.613Z,80.67
2017-08-04T19:36:27.702Z,80.88
2017-08-04T19:38:56.670Z,81.06
2017-08-04T19:41:24.887Z,81.22
2017-08-04T19:43:53.225Z,81.32
2017-08-04T19:46:21.883Z,81.44
2017-08-04T19:48:50.480Z,81.91
2017-08-04T19:51:18.168Z,82.24
2017-08-04T19:53:46.723Z,82.57
2017-08-04T19:56:15.247Z,82.52
2017-08-04T19:58:42.994Z,81.66
2017-08-04T20:01:11.469Z,82.26
2017-08-04T20:03:39.210Z,82.59
2017-08-04T20:06:07.565Z,82.99
2017-08-04T20:08:36.035Z,83.02
2017-08-04T20:11:04.939Z,83.24
2017-08-04T20:13:33.763Z,83.19
2017-08-04T20:16:01.457Z,83.36
2017-08-04T20:18:29.100Z,83.74
2017-08-04T20:20:56.724Z,84.00
2017-08-04T20:23:24.312Z,84.60
2017-08-04T20:25:52.441Z,84.22
2017-08-04T20:28:20.026Z,84.62
2017-08-04T20:30:47.633Z,84.31
2017-08-04T20:33:15.284Z,83.83
2017-08-04T20:35:42.912Z,83.63
2017-08-04T20:38:10.510Z,83.07
2017-08-04T20:40:38.198Z,83.09
2017-08-04T20:43:05.814Z,83.73
2017-08-04T20:45:33.424Z,83.36
2017-08-04T20:48:01.093Z,83.35
2017-08-04T20:50:28.694Z,83.66
2017-08-04T20:52:56.614Z,83.64
2017-08-04T20:55:24.311Z,83.13
2017-08-04T20:57:51.924Z,83.32
2017-08-04T21:00:19.533Z,83.53
2017-08-04T21:02:47.193Z,83.70
2017-08-04T21:05:14.823Z,84.12
2017-08-04T21:07:42.432Z,84.73
2017-08-04T21:10:10.102Z,84.87
2017-08-04T21:12:37.710Z,85.69
2017-08-04T21:15:05.698Z,85.85
2017-08-04T21:17:33.774Z,85.90
2017-08-04T21:20:01.440Z,86.26
2017-08-04T21:22:29.165Z,85.85
2017-08-04T21:24:56.963Z,85.86
2017-08-04T21:27:24.826Z,85.04
2017-08-04T21:29:52.928Z,84.16
2017-08-04T21:32:20.570Z,83.62
2017-08-04T21:34:48.228Z,83.05
2017-08-04T21:37:16.127Z,83.45
2017-08-04T21:39:43.964Z,83.08
2017-08-04T21:42:11.626Z,83.19
2017-08-04T21:44:39.285Z,83.43
2017-08-04T21:47:06.957Z,83.11
2017-08-04T21:49:34.561Z,82.48
2017-08-04T21:52:02.283Z,82.71
2017-08-04T21:54:29.937Z,82.20
2017-08-04T21:56:57.600Z,82.91
2017-08-04T21:59:25.470Z,82.67
2017-08-04T22:01:53.315Z,82.99
2017-08-04T22:04:21.180Z,81.78
2017-08-04T22:06:48.864Z,81.37
2017-08-04T22:09:16.513Z,81.37
2017-08-04T22:11:44.114Z,81.85
2017-08-04T22:14:11.806Z,82.25
2017-08-04T22:16:39.921Z,82.45
2017-08-04T22:19:07.804Z,82.47
2017-08-04T22:21:35.865Z,82.43
2017-08-04T22:24:03.836Z,83.18
2017-08-04T22:26:31.453Z,82.23
2017-08-04T22:28:59.117Z,82.62
2017-08-04T22:31:26.968Z,83.07
2017-08-04T22:33:54.883Z,83.65
2017-08-04T22:36:22.856Z,83.93
2017-08-04T22:38:50.885Z,84.76
2017-08-04T22:41:18.570Z,85.19
2017-08-04T22:43:46.232Z,85.79
2017-08-04T22:46:13.855Z,85.69
2017-08-04T22:48:41.468Z,84.60
2017-08-04T22:51:09.381Z,84.07
2017-08-04T22:53:37.011Z,84.66
2017-08-04T22:56:04.670Z,83.96
2017-08-04T22:58:32.353Z,84.38
2017-08-04T23:00:59.970Z,84.40
2017-08-04T23:03:27.818Z,84.37
2017-08-04T23:05:55.806Z,84.25
2017-08-04T23:08:23.552Z,84.58
2017-08-04T23:10:51.465Z,84.44
2017-08-04T23:13:19.281Z,84.71
2017-08-04T23:15:47.034Z,84.38
2017-08-04T23:18:14.661Z,84.83
2017-08-04T23:20:42.395Z,84.62
2017-08-04T23:23:10.124Z,83.92
2017-08-04T23:25:37.733Z,84.34
2017-08-04T23:28:05.417Z,84.68
2017-08-04T23:30:33.006Z,84.98
2017-08-04T23:33:00.605Z,83.51
2017-08-04T23:35:28.284Z,84.00
2017-08-04T23:37:55.905Z,84.76
2017-08-04T23:40:23.579Z,84.65
2017-08-04T23:42:51.245Z,84.19
2017-08-04T23:45:18.857Z,84.52
2017-08-04T23:47:46.483Z,84.22
2017-08-04T23:50:14.162Z,85.08
2017-08-04T23:52:41.773Z,84.73
2017-08-04T23:55:09.383Z,84.66
2017-08-04T23:57:37.046Z,84.35
